sensor_id;sensor_type;location;lat;lon;timestamp;pressure;altitude;pressure_sealevel;temperature
62930;BMP280;49036;42.782;23.108;2023-12-07T00:01:14;14898.91;;;3.27
62930;BMP280;49036;42.782;23.108;2023-12-07T00:03:40;15594.88;;;3.27
62930;BMP280;49036;42.782;23.108;2023-12-07T00:06:05;14232.88;;;3.31
62930;BMP280;49036;42.782;23.108;2023-12-07T00:08:31;15580.13;;;3.36
62930;BMP280;49036;42.782;23.108;2023-12-07T00:10:56;14422.47;;;3.33
62930;BMP280;49036;42.782;23.108;2023-12-07T00:13:22;13897.63;;;3.36
62930;BMP280;49036;42.782;23.108;2023-12-07T00:15:47;13433.84;;;3.36
62930;BMP280;49036;42.782;23.108;2023-12-07T00:18:13;14292.41;;;3.38
62930;BMP280;49036;42.782;23.108;2023-12-07T00:20:38;14807.53;;;3.42
62930;BMP280;49036;42.782;23.108;2023-12-07T00:23:04;15279.38;;;3.40
62930;BMP280;49036;42.782;23.108;2023-12-07T00:25:29;13101.56;;;3.44
62930;BMP280;49036;42.782;23.108;2023-12-07T00:27:54;14029.75;;;3.48
62930;BMP280;49036;42.782;23.108;2023-12-07T00:30:20;13603.19;;;3.48
62930;BMP280;49036;42.782;23.108;2023-12-07T00:32:46;15182.03;;;3.50
62930;BMP280;49036;42.782;23.108;2023-12-07T00:35:12;13611.25;;;3.49
62930;BMP280;49036;42.782;23.108;2023-12-07T00:37:37;13535.28;;;3.37
62930;BMP280;49036;42.782;23.108;2023-12-07T00:40:03;2441.56;;;3.28
62930;BMP280;49036;42.782;23.108;2023-12-07T00:42:30;1899.94;;;3.31
62930;BMP280;49036;42.782;23.108;2023-12-07T00:44:55;4342.34;;;3.33
62930;BMP280;49036;42.782;23.108;2023-12-07T00:47:21;3147.75;;;3.26
62930;BMP280;49036;42.782;23.108;2023-12-07T00:49:46;14013.66;;;3.25
62930;BMP280;49036;42.782;23.108;2023-12-07T00:52:12;14602.72;;;3.25
62930;BMP280;49036;42.782;23.108;2023-12-07T00:54:38;15353.44;;;3.17
62930;BMP280;49036;42.782;23.108;2023-12-07T00:57:04;16082.53;;;3.07
62930;BMP280;49036;42.782;23.108;2023-12-07T00:59:30;15100.53;;;3.00
62930;BMP280;49036;42.782;23.108;2023-12-07T01:02:00;15704.78;;;2.95
62930;BMP280;49036;42.782;23.108;2023-12-07T01:04:27;15495.06;;;2.82
62930;BMP280;49036;42.782;23.108;2023-12-07T01:06:53;15306.13;;;3.03
62930;BMP280;49036;42.782;23.108;2023-12-07T01:09:18;14685.38;;;3.05
62930;BMP280;49036;42.782;23.108;2023-12-07T01:11:44;14286.22;;;3.09
62930;BMP280;49036;42.782;23.108;2023-12-07T01:14:10;13926.88;;;3.12
62930;BMP280;49036;42.782;23.108;2023-12-07T01:16:36;13108.78;;;3.11
62930;BMP280;49036;42.782;23.108;2023-12-07T01:19:02;13367.84;;;3.17
62930;BMP280;49036;42.782;23.108;2023-12-07T01:21:28;12312.44;;;3.11
62930;BMP280;49036;42.782;23.108;2023-12-07T01:23:53;13986.16;;;3.18
62930;BMP280;49036;42.782;23.108;2023-12-07T01:26:19;13067.00;;;3.19
62930;BMP280;49036;42.782;23.108;2023-12-07T01:28:44;12970.84;;;3.16
62930;BMP280;49036;42.782;23.108;2023-12-07T01:31:10;13202.63;;;3.16
62930;BMP280;49036;42.782;23.108;2023-12-07T01:33:35;2675.50;;;3.23
62930;BMP280;49036;42.782;23.108;2023-12-07T01:36:01;302.38;;;3.36
62930;BMP280;49036;42.782;23.108;2023-12-07T01:38:26;13775.00;;;3.36
62930;BMP280;49036;42.782;23.108;2023-12-07T01:40:52;8568.72;;;3.27
62930;BMP280;49036;42.782;23.108;2023-12-07T01:43:21;-638.41;;;3.31
62930;BMP280;49036;42.782;23.108;2023-12-07T01:45:47;8619.16;;;3.24
62930;BMP280;49036;42.782;23.108;2023-12-07T01:48:13;12092.06;;;3.18
62930;BMP280;49036;42.782;23.108;2023-12-07T01:50:39;13268.78;;;3.12
62930;BMP280;49036;42.782;23.108;2023-12-07T01:53:05;12977.28;;;3.01
62930;BMP280;49036;42.782;23.108;2023-12-07T01:55:32;13145.22;;;3.03
62930;BMP280;49036;42.782;23.108;2023-12-07T01:57:58;15949.81;;;2.93
62930;BMP280;49036;42.782;23.108;2023-12-07T02:00:24;12390.75;;;2.94
62930;BMP280;49036;42.782;23.108;2023-12-07T02:02:50;14913.38;;;2.96
62930;BMP280;49036;42.782;23.108;2023-12-07T02:05:16;3170.66;;;2.98
62930;BMP280;49036;42.782;23.108;2023-12-07T02:07:42;8248.75;;;2.96
62930;BMP280;49036;42.782;23.108;2023-12-07T02:10:09;3237.03;;;2.97
62930;BMP280;49036;42.782;23.108;2023-12-07T02:12:34;1409.09;;;3.00
62930;BMP280;49036;42.782;23.108;2023-12-07T02:15:02;15754.19;;;3.04
62930;BMP280;49036;42.782;23.108;2023-12-07T02:17:33;6369.88;;;3.10
62930;BMP280;49036;42.782;23.108;2023-12-07T02:20:06;5586.25;;;3.04
62930;BMP280;49036;42.782;23.108;2023-12-07T02:22:56;14789.41;;;3.05
62930;BMP280;49036;42.782;23.108;2023-12-07T02:25:32;14178.84;;;3.03
62930;BMP280;49036;42.782;23.108;2023-12-07T02:28:00;1905.22;;;2.98
62930;BMP280;49036;42.782;23.108;2023-12-07T02:30:26;3409.50;;;2.97
62930;BMP280;49036;42.782;23.108;2023-12-07T02:32:51;15167.25;;;3.01
62930;BMP280;49036;42.782;23.108;2023-12-07T02:35:17;9402.75;;;2.96
62930;BMP280;49036;42.782;23.108;2023-12-07T02:37:49;19441.91;;;2.95
62930;BMP280;49036;42.782;23.108;2023-12-07T02:40:20;7472.69;;;3.00
62930;BMP280;49036;42.782;23.108;2023-12-07T02:42:46;7183.00;;;2.99
62930;BMP280;49036;42.782;23.108;2023-12-07T02:45:12;13483.28;;;3.01
62930;BMP280;49036;42.782;23.108;2023-12-07T02:47:39;2353.00;;;3.05
62930;BMP280;49036;42.782;23.108;2023-12-07T02:50:06;7940.63;;;3.07
62930;BMP280;49036;42.782;23.108;2023-12-07T02:52:32;8201.16;;;3.06
62930;BMP280;49036;42.782;23.108;2023-12-07T02:54:58;4691.25;;;3.05
62930;BMP280;49036;42.782;23.108;2023-12-07T02:57:23;3985.19;;;3.02
62930;BMP280;49036;42.782;23.108;2023-12-07T02:59:48;11994.84;;;3.02
62930;BMP280;49036;42.782;23.108;2023-12-07T03:02:14;3295.13;;;3.02
62930;BMP280;49036;42.782;23.108;2023-12-07T03:04:39;15364.75;;;3.03
62930;BMP280;49036;42.782;23.108;2023-12-07T03:07:05;5597.06;;;2.94
62930;BMP280;49036;42.782;23.108;2023-12-07T03:09:30;3319.56;;;2.92
62930;BMP280;49036;42.782;23.108;2023-12-07T03:11:56;5562.69;;;2.86
62930;BMP280;49036;42.782;23.108;2023-12-07T03:14:21;7621.38;;;2.90
62930;BMP280;49036;42.782;23.108;2023-12-07T03:16:47;16984.38;;;2.94
62930;BMP280;49036;42.782;23.108;2023-12-07T03:19:13;17426.31;;;2.89
62930;BMP280;49036;42.782;23.108;2023-12-07T03:21:39;12180.38;;;2.93
62930;BMP280;49036;42.782;23.108;2023-12-07T03:24:06;16243.59;;;2.97
62930;BMP280;49036;42.782;23.108;2023-12-07T03:26:33;4418.38;;;2.89
62930;BMP280;49036;42.782;23.108;2023-12-07T03:28:58;15773.28;;;2.89
62930;BMP280;49036;42.782;23.108;2023-12-07T03:31:24;13795.63;;;2.83
62930;BMP280;49036;42.782;23.108;2023-12-07T03:33:49;6941.13;;;2.86
62930;BMP280;49036;42.782;23.108;2023-12-07T03:36:15;15111.56;;;2.83
62930;BMP280;49036;42.782;23.108;2023-12-07T03:38:40;23572.34;;;2.78
62930;BMP280;49036;42.782;23.108;2023-12-07T03:41:06;28720.81;;;2.76
62930;BMP280;49036;42.782;23.108;2023-12-07T03:43:31;25059.81;;;2.73
62930;BMP280;49036;42.782;23.108;2023-12-07T03:45:57;23533.69;;;2.74
62930;BMP280;49036;42.782;23.108;2023-12-07T03:48:22;25492.03;;;2.79
62930;BMP280;49036;42.782;23.108;2023-12-07T03:50:48;23913.91;;;2.86
62930;BMP280;49036;42.782;23.108;2023-12-07T03:53:13;22253.47;;;2.82
62930;BMP280;49036;42.782;23.108;2023-12-07T03:55:39;21808.53;;;2.87
62930;BMP280;49036;42.782;23.108;2023-12-07T03:58:05;22642.84;;;2.90
62930;BMP280;49036;42.782;23.108;2023-12-07T04:00:32;24055.97;;;2.78
62930;BMP280;49036;42.782;23.108;2023-12-07T04:02:57;22457.22;;;2.75
62930;BMP280;49036;42.782;23.108;2023-12-07T04:05:23;24601.75;;;2.79
62930;BMP280;49036;42.782;23.108;2023-12-07T04:07:49;22476.06;;;2.75
62930;BMP280;49036;42.782;23.108;2023-12-07T04:10:14;22590.63;;;2.84
62930;BMP280;49036;42.782;23.108;2023-12-07T04:12:40;22851.66;;;2.81
62930;BMP280;49036;42.782;23.108;2023-12-07T04:15:06;24524.06;;;2.88
62930;BMP280;49036;42.782;23.108;2023-12-07T04:17:31;24581.69;;;2.84
62930;BMP280;49036;42.782;23.108;2023-12-07T04:19:57;22694.00;;;2.92
62930;BMP280;49036;42.782;23.108;2023-12-07T04:22:23;24571.16;;;2.94
62930;BMP280;49036;42.782;23.108;2023-12-07T04:24:48;22247.81;;;3.02
62930;BMP280;49036;42.782;23.108;2023-12-07T04:27:14;22198.59;;;3.08
62930;BMP280;49036;42.782;23.108;2023-12-07T04:29:39;24011.66;;;3.01
62930;BMP280;49036;42.782;23.108;2023-12-07T04:32:06;23803.09;;;3.01
62930;BMP280;49036;42.782;23.108;2023-12-07T04:34:31;21959.63;;;3.04
62930;BMP280;49036;42.782;23.108;2023-12-07T04:36:57;23682.78;;;3.01
62930;BMP280;49036;42.782;23.108;2023-12-07T04:39:22;22410.13;;;3.10
62930;BMP280;49036;42.782;23.108;2023-12-07T04:41:48;23764.13;;;3.05
62930;BMP280;49036;42.782;23.108;2023-12-07T04:44:14;21873.06;;;3.10
62930;BMP280;49036;42.782;23.108;2023-12-07T04:46:40;21630.41;;;3.12
62930;BMP280;49036;42.782;23.108;2023-12-07T04:49:07;21683.72;;;3.12
62930;BMP280;49036;42.782;23.108;2023-12-07T04:51:32;20909.41;;;3.14
62930;BMP280;49036;42.782;23.108;2023-12-07T04:53:58;23168.41;;;3.16
62930;BMP280;49036;42.782;23.108;2023-12-07T04:56:23;18675.06;;;3.18
62930;BMP280;49036;42.782;23.108;2023-12-07T04:58:49;19598.22;;;3.15
62930;BMP280;49036;42.782;23.108;2023-12-07T05:01:14;20706.59;;;3.15
62930;BMP280;49036;42.782;23.108;2023-12-07T05:03:40;22072.25;;;3.16
62930;BMP280;49036;42.782;23.108;2023-12-07T05:06:06;22323.75;;;3.17
62930;BMP280;49036;42.782;23.108;2023-12-07T05:08:33;22698.66;;;3.09
62930;BMP280;49036;42.782;23.108;2023-12-07T05:10:58;23005.69;;;3.08
62930;BMP280;49036;42.782;23.108;2023-12-07T05:13:24;22852.09;;;3.03
62930;BMP280;49036;42.782;23.108;2023-12-07T05:15:49;23438.53;;;2.97
62930;BMP280;49036;42.782;23.108;2023-12-07T05:18:15;23749.75;;;2.92
62930;BMP280;49036;42.782;23.108;2023-12-07T05:20:40;22827.38;;;2.90
62930;BMP280;49036;42.782;23.108;2023-12-07T05:23:06;23313.63;;;2.90
62930;BMP280;49036;42.782;23.108;2023-12-07T05:25:32;22536.78;;;2.83
62930;BMP280;49036;42.782;23.108;2023-12-07T05:27:58;23577.56;;;2.78
62930;BMP280;49036;42.782;23.108;2023-12-07T05:30:23;20185.47;;;2.77
62930;BMP280;49036;42.782;23.108;2023-12-07T05:32:49;22973.09;;;2.76
62930;BMP280;49036;42.782;23.108;2023-12-07T05:35:16;23266.03;;;2.72
62930;BMP280;49036;42.782;23.108;2023-12-07T05:37:41;23063.66;;;2.75
62930;BMP280;49036;42.782;23.108;2023-12-07T05:40:07;25213.81;;;2.70
62930;BMP280;49036;42.782;23.108;2023-12-07T05:42:34;23200.41;;;2.67
62930;BMP280;49036;42.782;23.108;2023-12-07T05:45:00;23302.22;;;2.68
62930;BMP280;49036;42.782;23.108;2023-12-07T05:47:26;25193.88;;;2.66
62930;BMP280;49036;42.782;23.108;2023-12-07T05:49:52;23746.91;;;2.72
62930;BMP280;49036;42.782;23.108;2023-12-07T05:52:17;25581.56;;;2.74
62930;BMP280;49036;42.782;23.108;2023-12-07T05:54:43;24178.84;;;2.68
62930;BMP280;49036;42.782;23.108;2023-12-07T05:57:10;24876.34;;;2.68
62930;BMP280;49036;42.782;23.108;2023-12-07T05:59:39;25888.75;;;2.65
62930;BMP280;49036;42.782;23.108;2023-12-07T06:02:05;25573.22;;;2.56
62930;BMP280;49036;42.782;23.108;2023-12-07T06:04:30;25426.81;;;2.58
62930;BMP280;49036;42.782;23.108;2023-12-07T06:06:56;23088.16;;;2.56
62930;BMP280;49036;42.782;23.108;2023-12-07T06:09:22;25487.38;;;2.55
62930;BMP280;49036;42.782;23.108;2023-12-07T06:11:47;26718.53;;;2.58
62930;BMP280;49036;42.782;23.108;2023-12-07T06:14:13;24960.38;;;2.63
62930;BMP280;49036;42.782;23.108;2023-12-07T06:16:38;24445.09;;;2.65
62930;BMP280;49036;42.782;23.108;2023-12-07T06:19:04;25716.06;;;2.68
62930;BMP280;49036;42.782;23.108;2023-12-07T06:21:29;25597.91;;;2.75
62930;BMP280;49036;42.782;23.108;2023-12-07T06:23:56;25062.47;;;2.73
62930;BMP280;49036;42.782;23.108;2023-12-07T06:26:22;25580.28;;;2.79
62930;BMP280;49036;42.782;23.108;2023-12-07T06:28:48;27552.09;;;2.79
62930;BMP280;49036;42.782;23.108;2023-12-07T06:31:13;26721.69;;;2.76
62930;BMP280;49036;42.782;23.108;2023-12-07T06:33:40;27258.69;;;2.74
62930;BMP280;49036;42.782;23.108;2023-12-07T06:36:06;26090.94;;;2.70
62930;BMP280;49036;42.782;23.108;2023-12-07T06:38:32;26698.81;;;2.55
62930;BMP280;49036;42.782;23.108;2023-12-07T06:40:57;26182.75;;;2.47
62930;BMP280;49036;42.782;23.108;2023-12-07T06:43:23;25164.34;;;2.39
62930;BMP280;49036;42.782;23.108;2023-12-07T06:45:49;26988.13;;;2.41
62930;BMP280;49036;42.782;23.108;2023-12-07T06:48:14;27055.34;;;2.42
62930;BMP280;49036;42.782;23.108;2023-12-07T06:50:40;25466.34;;;2.30
62930;BMP280;49036;42.782;23.108;2023-12-07T06:53:05;27992.25;;;2.28
62930;BMP280;49036;42.782;23.108;2023-12-07T06:55:30;27697.13;;;2.33
62930;BMP280;49036;42.782;23.108;2023-12-07T06:57:57;27202.66;;;2.26
62930;BMP280;49036;42.782;23.108;2023-12-07T07:00:22;27707.75;;;2.18
62930;BMP280;49036;42.782;23.108;2023-12-07T07:02:49;27564.47;;;2.13
62930;BMP280;49036;42.782;23.108;2023-12-07T07:05:15;27368.72;;;2.03
62930;BMP280;49036;42.782;23.108;2023-12-07T07:07:41;27190.03;;;2.13
62930;BMP280;49036;42.782;23.108;2023-12-07T07:10:07;27312.06;;;2.02
62930;BMP280;49036;42.782;23.108;2023-12-07T07:12:35;23674.66;;;2.04
62930;BMP280;49036;42.782;23.108;2023-12-07T07:15:00;25064.31;;;2.08
62930;BMP280;49036;42.782;23.108;2023-12-07T07:17:26;21886.53;;;2.03
62930;BMP280;49036;42.782;23.108;2023-12-07T07:19:54;21439.00;;;2.05
62930;BMP280;49036;42.782;23.108;2023-12-07T07:22:20;21915.22;;;2.11
62930;BMP280;49036;42.782;23.108;2023-12-07T07:24:46;24143.94;;;2.02
62930;BMP280;49036;42.782;23.108;2023-12-07T07:27:11;21986.88;;;1.99
62930;BMP280;49036;42.782;23.108;2023-12-07T07:29:36;24056.78;;;1.96
62930;BMP280;49036;42.782;23.108;2023-12-07T07:32:02;25161.34;;;1.93
62930;BMP280;49036;42.782;23.108;2023-12-07T07:34:28;22221.75;;;1.99
62930;BMP280;49036;42.782;23.108;2023-12-07T07:36:53;24226.91;;;1.93
62930;BMP280;49036;42.782;23.108;2023-12-07T07:39:19;24273.34;;;1.88
62930;BMP280;49036;42.782;23.108;2023-12-07T07:41:44;25831.81;;;1.85
62930;BMP280;49036;42.782;23.108;2023-12-07T07:44:09;24971.25;;;1.83
62930;BMP280;49036;42.782;23.108;2023-12-07T07:46:36;29676.00;;;1.81
62930;BMP280;49036;42.782;23.108;2023-12-07T07:49:01;26703.09;;;1.79
62930;BMP280;49036;42.782;23.108;2023-12-07T07:51:29;27401.56;;;1.66
62930;BMP280;49036;42.782;23.108;2023-12-07T07:53:54;28698.38;;;1.69
62930;BMP280;49036;42.782;23.108;2023-12-07T07:56:20;31309.41;;;1.72
62930;BMP280;49036;42.782;23.108;2023-12-07T07:58:47;26480.59;;;1.68
62930;BMP280;49036;42.782;23.108;2023-12-07T08:01:12;27688.34;;;1.61
62930;BMP280;49036;42.782;23.108;2023-12-07T08:03:38;30166.59;;;1.63
62930;BMP280;49036;42.782;23.108;2023-12-07T08:06:03;27649.88;;;1.58
62930;BMP280;49036;42.782;23.108;2023-12-07T08:08:29;27388.47;;;1.59
62930;BMP280;49036;42.782;23.108;2023-12-07T08:10:55;28194.84;;;1.51
62930;BMP280;49036;42.782;23.108;2023-12-07T08:13:20;26205.38;;;1.51
62930;BMP280;49036;42.782;23.108;2023-12-07T08:15:46;17719.16;;;1.53
62930;BMP280;49036;42.782;23.108;2023-12-07T08:18:11;30151.22;;;1.51
62930;BMP280;49036;42.782;23.108;2023-12-07T08:20:36;25830.22;;;1.46
62930;BMP280;49036;42.782;23.108;2023-12-07T08:23:03;23078.91;;;1.52
62930;BMP280;49036;42.782;23.108;2023-12-07T08:25:28;33972.22;;;1.47
62930;BMP280;49036;42.782;23.108;2023-12-07T08:27:54;32216.34;;;1.46
62930;BMP280;49036;42.782;23.108;2023-12-07T08:30:19;25081.44;;;1.49
62930;BMP280;49036;42.782;23.108;2023-12-07T08:32:45;29841.28;;;1.44
62930;BMP280;49036;42.782;23.108;2023-12-07T08:35:10;27330.41;;;1.45
62930;BMP280;49036;42.782;23.108;2023-12-07T08:37:39;27085.25;;;1.47
62930;BMP280;49036;42.782;23.108;2023-12-07T08:40:05;28907.09;;;1.47
62930;BMP280;49036;42.782;23.108;2023-12-07T08:42:31;24134.81;;;1.42
62930;BMP280;49036;42.782;23.108;2023-12-07T08:44:57;28171.69;;;1.38
62930;BMP280;49036;42.782;23.108;2023-12-07T08:47:23;32682.59;;;1.41
62930;BMP280;49036;42.782;23.108;2023-12-07T08:49:50;30974.78;;;1.44
62930;BMP280;49036;42.782;23.108;2023-12-07T08:52:16;34541.88;;;1.40
62930;BMP280;49036;42.782;23.108;2023-12-07T08:54:43;27640.34;;;1.46
62930;BMP280;49036;42.782;23.108;2023-12-07T08:57:09;21903.22;;;1.52
62930;BMP280;49036;42.782;23.108;2023-12-07T08:59:34;30284.63;;;1.43
62930;BMP280;49036;42.782;23.108;2023-12-07T09:02:00;29997.81;;;1.41
62930;BMP280;49036;42.782;23.108;2023-12-07T09:04:26;31175.94;;;1.39
62930;BMP280;49036;42.782;23.108;2023-12-07T09:06:52;26993.44;;;1.44
62930;BMP280;49036;42.782;23.108;2023-12-07T09:09:19;31224.91;;;1.35
62930;BMP280;49036;42.782;23.108;2023-12-07T09:11:44;22206.13;;;1.38
62930;BMP280;49036;42.782;23.108;2023-12-07T09:14:10;21277.53;;;1.43
62930;BMP280;49036;42.782;23.108;2023-12-07T09:16:45;20434.63;;;1.51
62930;BMP280;49036;42.782;23.108;2023-12-07T09:19:12;23147.69;;;1.50
62930;BMP280;49036;42.782;23.108;2023-12-07T09:21:39;20539.44;;;1.55
62930;BMP280;49036;42.782;23.108;2023-12-07T09:24:05;23471.75;;;1.55
62930;BMP280;49036;42.782;23.108;2023-12-07T09:26:32;23725.41;;;1.56
62930;BMP280;49036;42.782;23.108;2023-12-07T09:28:57;24553.44;;;1.41
62930;BMP280;49036;42.782;23.108;2023-12-07T09:31:23;22703.75;;;1.45
62930;BMP280;49036;42.782;23.108;2023-12-07T09:33:48;20338.16;;;1.48
62930;BMP280;49036;42.782;23.108;2023-12-07T09:36:17;18685.59;;;1.40
62930;BMP280;49036;42.782;23.108;2023-12-07T09:38:44;22380.38;;;1.52
62930;BMP280;49036;42.782;23.108;2023-12-07T09:41:09;19147.34;;;1.46
62930;BMP280;49036;42.782;23.108;2023-12-07T09:43:35;21948.91;;;1.32
62930;BMP280;49036;42.782;23.108;2023-12-07T09:46:01;7131.38;;;1.26
62930;BMP280;49036;42.782;23.108;2023-12-07T09:48:26;14964.19;;;1.19
62930;BMP280;49036;42.782;23.108;2023-12-07T09:50:53;2086.00;;;1.18
62930;BMP280;49036;42.782;23.108;2023-12-07T09:53:20;11992.16;;;1.16
62930;BMP280;49036;42.782;23.108;2023-12-07T09:55:46;6487.56;;;1.20
62930;BMP280;49036;42.782;23.108;2023-12-07T09:58:12;13852.53;;;1.09
62930;BMP280;49036;42.782;23.108;2023-12-07T10:00:38;10327.88;;;1.06
62930;BMP280;49036;42.782;23.108;2023-12-07T10:03:05;9715.41;;;1.08
62930;BMP280;49036;42.782;23.108;2023-12-07T10:05:33;9969.75;;;1.04
62930;BMP280;49036;42.782;23.108;2023-12-07T10:07:58;11343.72;;;1.05
62930;BMP280;49036;42.782;23.108;2023-12-07T10:10:24;4931.06;;;0.98
62930;BMP280;49036;42.782;23.108;2023-12-07T10:12:56;3975.81;;;0.98
62930;BMP280;49036;42.782;23.108;2023-12-07T10:15:24;3985.97;;;1.07
62930;BMP280;49036;42.782;23.108;2023-12-07T10:17:51;17505.81;;;1.05
62930;BMP280;49036;42.782;23.108;2023-12-07T10:20:21;27957.72;;;1.06
62930;BMP280;49036;42.782;23.108;2023-12-07T10:23:07;14385.34;;;1.01
62930;BMP280;49036;42.782;23.108;2023-12-07T10:25:35;13897.81;;;0.87
62930;BMP280;49036;42.782;23.108;2023-12-07T10:28:01;28297.91;;;0.87
62930;BMP280;49036;42.782;23.108;2023-12-07T10:30:31;13477.72;;;0.81
62930;BMP280;49036;42.782;23.108;2023-12-07T10:32:57;11535.03;;;0.74
62930;BMP280;49036;42.782;23.108;2023-12-07T10:35:23;9470.19;;;0.80
62930;BMP280;49036;42.782;23.108;2023-12-07T10:37:48;7467.44;;;0.83
62930;BMP280;49036;42.782;23.108;2023-12-07T10:40:14;10650.28;;;0.88
62930;BMP280;49036;42.782;23.108;2023-12-07T10:42:41;7038.50;;;0.96
62930;BMP280;49036;42.782;23.108;2023-12-07T10:45:07;7531.09;;;0.91
62930;BMP280;49036;42.782;23.108;2023-12-07T10:47:36;6458.56;;;0.91
62930;BMP280;49036;42.782;23.108;2023-12-07T10:50:05;7936.34;;;0.88
62930;BMP280;49036;42.782;23.108;2023-12-07T10:52:34;7735.06;;;0.91
62930;BMP280;49036;42.782;23.108;2023-12-07T10:55:07;7282.22;;;1.01
62930;BMP280;49036;42.782;23.108;2023-12-07T10:57:33;8514.75;;;1.17
62930;BMP280;49036;42.782;23.108;2023-12-07T11:00:00;7777.88;;;1.16
62930;BMP280;49036;42.782;23.108;2023-12-07T11:02:29;10957.19;;;1.16
62930;BMP280;49036;42.782;23.108;2023-12-07T11:04:56;8453.59;;;1.11
62930;BMP280;49036;42.782;23.108;2023-12-07T11:07:24;15876.06;;;1.21
62930;BMP280;49036;42.782;23.108;2023-12-07T11:10:58;15150.47;;;1.21
62930;BMP280;49036;42.782;23.108;2023-12-07T11:13:13;14821.66;;;1.26
62930;BMP280;49036;42.782;23.108;2023-12-07T11:15:43;15919.97;;;1.30
62930;BMP280;49036;42.782;23.108;2023-12-07T11:18:08;15264.66;;;1.39
62930;BMP280;49036;42.782;23.108;2023-12-07T11:20:44;14797.50;;;1.44
62930;BMP280;49036;42.782;23.108;2023-12-07T11:23:10;14663.19;;;1.34
62930;BMP280;49036;42.782;23.108;2023-12-07T11:25:38;14891.56;;;1.32
62930;BMP280;49036;42.782;23.108;2023-12-07T11:28:06;15635.59;;;1.31
62930;BMP280;49036;42.782;23.108;2023-12-07T11:30:35;15413.53;;;1.39
62930;BMP280;49036;42.782;23.108;2023-12-07T11:33:02;13925.09;;;1.39
62930;BMP280;49036;42.782;23.108;2023-12-07T11:35:28;15399.72;;;1.36
62930;BMP280;49036;42.782;23.108;2023-12-07T11:38:09;14476.25;;;1.47
62930;BMP280;49036;42.782;23.108;2023-12-07T11:40:41;15734.22;;;1.51
62930;BMP280;49036;42.782;23.108;2023-12-07T11:43:07;17613.44;;;1.57
62930;BMP280;49036;42.782;23.108;2023-12-07T11:45:49;18089.78;;;1.56
62930;BMP280;49036;42.782;23.108;2023-12-07T11:48:15;20137.19;;;1.55
62930;BMP280;49036;42.782;23.108;2023-12-07T11:53:32;18563.63;;;1.42
62930;BMP280;49036;42.782;23.108;2023-12-07T11:55:59;14629.63;;;1.41
62930;BMP280;49036;42.782;23.108;2023-12-07T11:58:28;15864.75;;;1.34
62930;BMP280;49036;42.782;23.108;2023-12-07T12:00:53;9581.69;;;1.41
62930;BMP280;49036;42.782;23.108;2023-12-07T12:03:20;5056.91;;;1.41
62930;BMP280;49036;42.782;23.108;2023-12-07T12:05:46;14173.63;;;1.29
62930;BMP280;49036;42.782;23.108;2023-12-07T12:08:11;10089.66;;;1.14
62930;BMP280;49036;42.782;23.108;2023-12-07T12:10:39;15378.97;;;1.02
62930;BMP280;49036;42.782;23.108;2023-12-07T12:13:05;13598.81;;;0.96
62930;BMP280;49036;42.782;23.108;2023-12-07T12:15:30;7104.75;;;1.00
62930;BMP280;49036;42.782;23.108;2023-12-07T12:17:56;24495.34;;;0.98
62930;BMP280;49036;42.782;23.108;2023-12-07T12:20:23;10831.22;;;0.97
62930;BMP280;49036;42.782;23.108;2023-12-07T12:22:50;14844.38;;;0.97
62930;BMP280;49036;42.782;23.108;2023-12-07T12:25:16;17466.53;;;0.93
62930;BMP280;49036;42.782;23.108;2023-12-07T12:27:41;16320.56;;;0.90
62930;BMP280;49036;42.782;23.108;2023-12-07T12:30:08;17122.31;;;0.85
62930;BMP280;49036;42.782;23.108;2023-12-07T12:32:43;17323.88;;;0.83
62930;BMP280;49036;42.782;23.108;2023-12-07T12:35:09;17242.91;;;0.76
62930;BMP280;49036;42.782;23.108;2023-12-07T12:37:36;11524.53;;;0.76
62930;BMP280;49036;42.782;23.108;2023-12-07T12:40:06;13733.66;;;0.68
62930;BMP280;49036;42.782;23.108;2023-12-07T12:42:32;12785.06;;;0.54
62930;BMP280;49036;42.782;23.108;2023-12-07T12:44:58;12720.69;;;0.47
62930;BMP280;49036;42.782;23.108;2023-12-07T12:47:24;12004.25;;;0.41
62930;BMP280;49036;42.782;23.108;2023-12-07T12:49:49;12867.78;;;0.33
62930;BMP280;49036;42.782;23.108;2023-12-07T12:52:16;9637.41;;;0.29
62930;BMP280;49036;42.782;23.108;2023-12-07T12:54:46;12113.91;;;0.22
62930;BMP280;49036;42.782;23.108;2023-12-07T12:57:12;32852.41;;;0.20
62930;BMP280;49036;42.782;23.108;2023-12-07T12:59:39;20935.56;;;0.14
62930;BMP280;49036;42.782;23.108;2023-12-07T13:02:05;13353.09;;;0.09
62930;BMP280;49036;42.782;23.108;2023-12-07T13:04:30;-966.25;;;0.08
62930;BMP280;49036;42.782;23.108;2023-12-07T13:06:56;15927.72;;;0.05
62930;BMP280;49036;42.782;23.108;2023-12-07T13:09:22;11704.44;;;0.05
62930;BMP280;49036;42.782;23.108;2023-12-07T13:11:48;14900.97;;;0.04
62930;BMP280;49036;42.782;23.108;2023-12-07T13:14:14;15516.28;;;0.03
62930;BMP280;49036;42.782;23.108;2023-12-07T13:16:40;12949.47;;;0.02
62930;BMP280;49036;42.782;23.108;2023-12-07T13:19:05;16064.81;;;-0.01
62930;BMP280;49036;42.782;23.108;2023-12-07T13:21:32;24658.97;;;0.01
62930;BMP280;49036;42.782;23.108;2023-12-07T13:23:57;28037.41;;;-0.02
62930;BMP280;49036;42.782;23.108;2023-12-07T13:26:23;22268.94;;;-0.03
62930;BMP280;49036;42.782;23.108;2023-12-07T13:28:49;31469.31;;;-0.01
62930;BMP280;49036;42.782;23.108;2023-12-07T13:31:14;27943.97;;;-0.02
62930;BMP280;49036;42.782;23.108;2023-12-07T13:33:40;34829.88;;;-0.02
62930;BMP280;49036;42.782;23.108;2023-12-07T13:36:06;29714.53;;;-0.00
62930;BMP280;49036;42.782;23.108;2023-12-07T13:38:32;34523.16;;;-0.01
62930;BMP280;49036;42.782;23.108;2023-12-07T13:40:58;35570.38;;;-0.01
62930;BMP280;49036;42.782;23.108;2023-12-07T13:43:25;35029.44;;;0.02
62930;BMP280;49036;42.782;23.108;2023-12-07T13:45:52;35426.56;;;0.00
62930;BMP280;49036;42.782;23.108;2023-12-07T13:48:18;35644.47;;;-0.08
62930;BMP280;49036;42.782;23.108;2023-12-07T13:50:43;40714.91;;;-0.07
62930;BMP280;49036;42.782;23.108;2023-12-07T13:53:09;36900.44;;;-0.08
62930;BMP280;49036;42.782;23.108;2023-12-07T13:55:38;29868.19;;;-0.10
62930;BMP280;49036;42.782;23.108;2023-12-07T13:58:05;29217.53;;;-0.10
62930;BMP280;49036;42.782;23.108;2023-12-07T14:00:33;30055.19;;;-0.09
62930;BMP280;49036;42.782;23.108;2023-12-07T14:02:59;31761.72;;;-0.10
62930;BMP280;49036;42.782;23.108;2023-12-07T14:05:25;26036.91;;;-0.10
62930;BMP280;49036;42.782;23.108;2023-12-07T14:07:51;32417.44;;;-0.11